Time;durP1;ratioP1;P1;durP2;ratioP2;P2;SDS_P1;SDS_P2;PMS_P1;PMS_P2;Temp;Humidity;BMP_temperature;BMP_pressure;BME280_temperature;BME280_humidity;BME280_pressure;Samples;Min_cycle;Max_cycle;Signal;HPM_P1;HPM_P2
2024/01/11 07:28:57;;;;;;;36.58;18.17;;;8.00;99.90;;;;;;5972868;23;21113;-86
2024/01/11 07:31:29;;;;;;;32.65;18.02;;;8.10;99.90;;;;;;4983829;28;20115;-87
2024/01/11 07:33:56;;;;;;;33.03;18.40;;;8.20;99.90;;;;;;4999750;28;20042;-87
2024/01/11 07:36:22;;;;;;;30.67;17.40;;;8.30;99.90;;;;;;4982236;28;20033;-87
2024/01/11 07:38:49;;;;;;;30.58;17.15;;;8.40;99.90;;;;;;4981863;28;20030;-87
2024/01/11 07:41:15;;;;;;;39.92;19.98;;;8.60;99.90;;;;;;4981639;28;20032;-87
2024/01/11 07:43:43;;;;;;;36.50;18.77;;;8.70;99.90;;;;;;4981577;28;20434;-87
2024/01/11 07:46:10;;;;;;;27.73;16.38;;;8.90;99.90;;;;;;4981495;28;20022;-86
2024/01/11 07:48:36;;;;;;;33.95;17.35;;;9.20;99.90;;;;;;4981435;28;20086;-87
2024/01/11 07:51:03;;;;;;;30.58;19.02;;;9.40;99.90;;;;;;4981511;28;20427;-86
2024/01/11 07:53:31;;;;;;;27.98;19.05;;;9.40;99.90;;;;;;4981535;28;20026;-86
2024/01/11 07:55:58;;;;;;;35.13;20.42;;;9.60;99.90;;;;;;4981519;28;20112;-88
2024/01/11 07:58:25;;;;;;;31.30;18.48;;;9.70;99.90;;;;;;4981272;28;20030;-86
2024/01/11 08:00:52;;;;;;;28.10;17.90;;;9.70;99.90;;;;;;4975013;28;20066;-86
2024/01/11 08:03:18;;;;;;;29.70;19.38;;;9.90;99.90;;;;;;4958655;28;20150;-87
2024/01/11 08:05:44;;;;;;;32.83;22.02;;;10.00;99.90;;;;;;4976934;28;20488;-86
2024/01/11 08:08:11;;;;;;;36.55;23.25;;;10.10;99.90;;;;;;4961762;28;20038;-86
2024/01/11 08:10:37;;;;;;;35.30;23.25;;;10.10;99.90;;;;;;4977667;28;20050;-86
2024/01/11 08:13:04;;;;;;;37.42;23.90;;;10.20;99.90;;;;;;4961632;28;20034;-87
2024/01/11 08:15:30;;;;;;;36.25;25.00;;;10.40;99.90;;;;;;4961823;28;20503;-86
2024/01/11 08:17:57;;;;;;;36.20;25.02;;;10.60;99.90;;;;;;4961320;28;20383;-87
2024/01/11 08:20:23;;;;;;;33.10;24.63;;;10.60;99.90;;;;;;4977503;28;20487;-88
2024/01/11 08:22:50;;;;;;;35.03;24.65;;;10.80;99.90;;;;;;4977572;28;20120;-88
2024/01/11 08:25:16;;;;;;;37.05;24.30;;;10.90;99.90;;;;;;4977597;28;20037;-87
2024/01/11 08:27:43;;;;;;;33.95;24.88;;;11.10;99.90;;;;;;4961160;28;20031;-87
2024/01/11 08:30:13;;;;;;;38.10;24.65;;;11.30;99.90;;;;;;4963267;28;20057;-86
2024/01/11 08:32:41;;;;;;;36.00;25.10;;;11.40;99.90;;;;;;4959910;28;20130;-87
2024/01/11 08:35:12;;;;;;;32.25;22.17;;;11.50;99.90;;;;;;4961368;28;20026;-86
2024/01/11 08:37:41;;;;;;;27.90;23.13;;;11.60;99.90;;;;;;4960996;28;20046;-89
2024/01/11 08:40:11;;;;;;;24.17;21.60;;;11.70;99.90;;;;;;4957211;28;20069;-86
2024/01/11 08:42:39;;;;;;;24.65;21.98;;;11.60;99.90;;;;;;4975589;28;20030;-85
2024/01/11 08:45:09;;;;;;;22.48;20.38;;;11.70;99.90;;;;;;4941679;28;20031;-86
2024/01/11 08:47:38;;;;;;;23.20;21.00;;;11.80;99.90;;;;;;4941034;28;20058;-84
2024/01/11 08:50:06;;;;;;;22.05;20.05;;;11.90;99.90;;;;;;4960365;28;20034;-84
2024/01/11 08:52:33;;;;;;;21.85;19.77;;;12.10;99.90;;;;;;4977653;28;20037;-86
2024/01/11 08:55:02;;;;;;;22.45;20.50;;;12.20;99.90;;;;;;4961021;28;20169;-86
2024/01/11 08:57:35;;;;;;;21.95;19.95;;;12.30;99.90;;;;;;4961459;28;20029;-86
2024/01/11 09:00:04;;;;;;;21.75;19.88;;;12.40;99.90;;;;;;4960920;28;20030;-86
2024/01/11 09:02:30;;;;;;;21.48;19.88;;;12.30;99.90;;;;;;4961003;28;20026;-88
2024/01/11 09:04:57;;;;;;;23.10;21.17;;;12.40;99.90;;;;;;4960657;28;20030;-85
2024/01/11 09:07:24;;;;;;;21.70;20.10;;;12.20;99.90;;;;;;4960172;28;20023;-85
2024/01/11 09:09:51;;;;;;;22.65;20.77;;;12.20;99.90;;;;;;4951020;28;20038;-86
2024/01/11 09:12:17;;;;;;;23.83;21.88;;;12.20;99.90;;;;;;4941280;28;20442;-86
2024/01/11 09:14:44;;;;;;;23.98;22.27;;;12.30;99.90;;;;;;4941662;28;20068;-84
2024/01/11 09:17:11;;;;;;;24.70;22.90;;;12.40;99.90;;;;;;4941261;28;20054;-85
2024/01/11 09:19:39;;;;;;;25.70;23.80;;;12.40;99.90;;;;;;4940861;28;20029;-85
2024/01/11 09:22:09;;;;;;;24.83;23.17;;;12.50;99.90;;;;;;4941238;28;20026;-85
2024/01/11 09:24:36;;;;;;;26.25;24.23;;;12.50;99.90;;;;;;4941427;28;20027;-85
2024/01/11 09:27:04;;;;;;;27.33;25.42;;;12.60;99.90;;;;;;4957198;28;20026;-84
2024/01/11 09:29:30;;;;;;;28.23;26.35;;;12.60;99.90;;;;;;4946302;28;20157;-86
2024/01/11 09:31:57;;;;;;;30.08;28.17;;;12.70;99.90;;;;;;4960380;28;20038;-83
2024/01/11 09:34:23;;;;;;;31.63;29.52;;;12.70;99.90;;;;;;4959914;28;20545;-83
2024/01/11 09:36:50;;;;;;;31.58;29.48;;;12.50;99.90;;;;;;4960207;28;20505;-84
2024/01/11 09:39:17;;;;;;;31.73;29.63;;;12.40;99.90;;;;;;4976234;28;20112;-85
2024/01/11 09:41:52;;;;;;;31.30;29.25;;;12.50;99.90;;;;;;4960625;28;20130;-87
2024/01/11 09:44:20;;;;;;;31.85;29.65;;;12.80;99.90;;;;;;4961036;28;20142;-87
2024/01/11 09:46:47;;;;;;;31.35;29.05;;;12.90;99.90;;;;;;4960810;28;20058;-85
2024/01/11 09:49:17;;;;;;;31.25;29.15;;;12.90;99.90;;;;;;4959943;28;20042;-84
2024/01/11 09:51:45;;;;;;;30.98;28.95;;;13.00;99.90;;;;;;4995955;28;20066;-85
2024/01/11 09:54:13;;;;;;;31.02;28.95;;;13.10;99.90;;;;;;4982848;28;20129;-85
2024/01/11 09:56:41;;;;;;;31.20;29.00;;;13.40;99.90;;;;;;4999019;28;20483;-84
2024/01/11 09:59:09;;;;;;;31.23;28.70;;;13.40;99.90;;;;;;4982653;28;20038;-85
2024/01/11 10:01:42;;;;;;;31.83;29.63;;;13.30;99.90;;;;;;4983102;28;20033;-88
2024/01/11 10:04:13;;;;;;;32.33;30.02;;;13.10;99.90;;;;;;4999882;28;20048;-89
2024/01/11 10:06:40;;;;;;;30.08;28.02;;;12.90;99.90;;;;;;4999779;28;20029;-89
2024/01/11 10:09:07;;;;;;;27.75;25.85;;;12.90;99.90;;;;;;4983647;28;20049;-89
2024/01/11 10:11:34;;;;;;;26.45;24.45;;;12.90;99.90;;;;;;4983620;28;20502;-89
2024/01/11 10:14:01;;;;;;;27.42;25.40;;;12.70;99.90;;;;;;4983476;28;20057;-90
2024/01/11 10:16:31;;;;;;;27.33;25.42;;;12.70;99.90;;;;;;4983391;28;20084;-88
2024/01/11 10:19:01;;;;;;;27.60;25.50;;;12.70;99.90;;;;;;4983499;28;20129;-88
2024/01/11 10:21:30;;;;;;;28.08;25.73;;;12.80;99.90;;;;;;4983182;28;20042;-88
2024/01/11 10:23:59;;;;;;;29.48;27.27;;;12.70;99.90;;;;;;4983209;28;20121;-88
2024/01/11 10:26:25;;;;;;;28.83;26.48;;;12.70;99.90;;;;;;4983289;28;20114;-89
2024/01/11 10:28:51;;;;;;;29.02;27.13;;;12.60;99.90;;;;;;4983081;28;20037;-90
2024/01/11 10:31:18;;;;;;;28.25;26.15;;;12.40;99.90;;;;;;4983147;28;20038;-88
2024/01/11 10:33:45;;;;;;;28.65;26.67;;;12.60;99.90;;;;;;4982987;28;20049;-90
2024/01/11 10:36:11;;;;;;;29.20;27.15;;;12.70;99.90;;;;;;4983215;28;20030;-88
2024/01/11 10:38:43;;;;;;;28.55;26.65;;;12.60;99.90;;;;;;4982972;28;20085;-89
2024/01/11 10:41:17;;;;;;;30.15;28.15;;;12.60;99.90;;;;;;4999207;28;20394;-89
2024/01/11 10:43:43;;;;;;;;;;;12.60;99.90;;;;;;5000012;28;20030;-87
2024/01/11 10:46:12;;;;;;;29.95;28.05;;;12.70;99.90;;;;;;4982828;28;19991;-89
2024/01/11 10:48:43;;;;;;;30.00;28.10;;;13.00;99.90;;;;;;4998904;28;20507;-88
2024/01/11 10:51:12;;;;;;;30.33;28.33;;;13.10;99.90;;;;;;4983242;28;20053;-88
2024/01/11 10:53:46;;;;;;;30.35;28.52;;;13.30;99.90;;;;;;4982777;28;20038;-88
2024/01/11 10:56:17;;;;;;;30.52;28.45;;;13.60;99.90;;;;;;4982787;28;20026;-87
2024/01/11 10:58:44;;;;;;;31.40;29.30;;;13.50;99.90;;;;;;4998904;28;20057;-88
2024/01/11 11:01:13;;;;;;;31.33;29.23;;;13.50;99.90;;;;;;4979141;28;20023;-88
2024/01/11 11:03:43;;;;;;;31.00;29.00;;;13.10;99.90;;;;;;4962641;28;20030;-89
2024/01/11 11:06:12;;;;;;;30.92;28.77;;;13.00;99.90;;;;;;4963301;28;20113;-88
2024/01/11 11:08:43;;;;;;;30.27;28.25;;;12.80;99.90;;;;;;4979758;28;20058;-89
2024/01/11 11:11:11;;;;;;;31.20;29.10;;;12.70;99.90;;;;;;4963533;28;20030;-89
2024/01/11 11:13:38;;;;;;;30.48;28.45;;;12.80;99.90;;;;;;4979316;28;20034;-88
2024/01/11 11:16:05;;;;;;;30.45;28.35;;;12.60;99.90;;;;;;4968498;28;20025;-88
2024/01/11 11:18:34;;;;;;;30.58;28.48;;;12.50;99.90;;;;;;4982359;28;20033;-88
2024/01/11 11:21:06;;;;;;;29.65;27.67;;;12.60;99.90;;;;;;4982188;28;20030;-88
2024/01/11 11:23:33;;;;;;;31.00;28.83;;;12.80;99.90;;;;;;4982101;28;20037;-89
2024/01/11 11:25:59;;;;;;;30.15;27.95;;;13.00;99.90;;;;;;4982227;28;20060;-88
2024/01/11 11:28:26;;;;;;;29.92;27.83;;;13.10;99.90;;;;;;4982151;28;20030;-88
2024/01/11 11:30:53;;;;;;;29.65;27.75;;;12.90;99.90;;;;;;4965484;28;20073;-89
2024/01/11 11:33:26;;;;;;;30.77;28.63;;;12.90;99.90;;;;;;4962832;28;20064;-89
2024/01/11 11:35:58;;;;;;;30.88;28.73;;;12.70;99.90;;;;;;4962645;28;20100;-88
2024/01/11 11:38:30;;;;;;;30.75;28.40;;;12.60;99.90;;;;;;4962722;28;20033;-89
2024/01/11 11:40:59;;;;;;;30.42;28.40;;;12.60;99.90;;;;;;4959348;28;20031;-91
2024/01/11 11:43:27;;;;;;;30.27;28.38;;;12.60;99.90;;;;;;4960346;28;20066;-88
2024/01/11 11:45:55;;;;;;;30.55;28.40;;;12.50;99.90;;;;;;4962301;28;20031;-89
2024/01/11 11:48:39;;;;;;;29.75;27.60;;;12.50;99.90;;;;;;4962358;28;20030;-88
2024/01/11 11:51:06;;;;;;;30.08;28.10;;;12.40;99.90;;;;;;4962500;28;20034;-89
2024/01/11 11:53:34;;;;;;;29.48;27.45;;;12.50;99.90;;;;;;4962396;28;20046;-90
2024/01/11 11:56:02;;;;;;;30.63;28.40;;;12.80;99.90;;;;;;4962306;28;20027;-88
2024/01/11 11:58:29;;;;;;;29.63;27.52;;;12.80;99.90;;;;;;4962087;28;20027;-88
2024/01/11 12:00:58;;;;;;;30.33;28.10;;;12.70;99.90;;;;;;4962069;28;20027;-88
2024/01/11 12:03:30;;;;;;;30.67;28.33;;;12.60;99.90;;;;;;4962162;28;20018;-89
2024/01/11 12:05:58;;;;;;;29.02;27.13;;;12.50;99.90;;;;;;4961569;28;20042;-88
2024/01/11 12:08:24;;;;;;;29.08;26.98;;;12.40;99.90;;;;;;4962046;28;20025;-90
2024/01/11 12:10:52;;;;;;;29.40;27.50;;;12.40;99.90;;;;;;4961843;28;20034;-85
2024/01/11 12:13:18;;;;;;;29.55;27.42;;;12.50;99.90;;;;;;4961992;28;20030;-88
2024/01/11 12:15:45;;;;;;;29.55;27.63;;;12.50;99.90;;;;;;4961204;28;20141;-88
2024/01/11 12:18:15;;;;;;;28.25;26.35;;;12.70;99.90;;;;;;4961849;28;20026;-87
2024/01/11 12:20:41;;;;;;;29.15;27.20;;;12.90;99.90;;;;;;4961672;28;20072;-88
2024/01/11 12:23:08;;;;;;;29.40;27.50;;;13.00;99.90;;;;;;4961505;28;20026;-89
2024/01/11 12:25:36;;;;;;;29.35;27.42;;;13.10;99.90;;;;;;4961755;28;20030;-88
2024/01/11 12:28:02;;;;;;;29.02;27.02;;;12.90;99.90;;;;;;4961877;28;20023;-87
2024/01/11 12:30:29;;;;;;;28.35;26.55;;;13.30;99.90;;;;;;4974682;28;20042;-88
2024/01/11 12:32:56;;;;;;;28.65;26.73;;;13.20;99.90;;;;;;4981137;28;20044;-89
2024/01/11 12:35:23;;;;;;;28.90;26.90;;;13.30;99.90;;;;;;4980492;28;20384;-88
2024/01/11 12:38:10;;;;;;;28.65;26.75;;;13.10;99.90;;;;;;4976276;28;20117;-88
2024/01/11 12:40:38;;;;;;;28.55;26.73;;;13.30;99.90;;;;;;4979040;28;20034;-86
2024/01/11 12:43:06;;;;;;;28.80;27.00;;;13.40;99.90;;;;;;4988470;28;20360;-85
2024/01/11 12:45:32;;;;;;;29.50;27.50;;;13.30;99.90;;;;;;4999981;28;20037;-87
2024/01/11 12:48:00;;;;;;;30.92;28.73;;;13.40;99.90;;;;;;5000311;28;20022;-88
2024/01/11 12:50:28;;;;;;;30.15;28.05;;;13.10;99.90;;;;;;5000006;28;20517;-86
2024/01/11 12:53:18;;;;;;;30.52;28.48;;;13.00;99.90;;;;;;5000208;28;20606;-86
2024/01/11 12:55:49;;;;;;;30.48;28.48;;;12.90;99.90;;;;;;5016581;28;20356;-86
2024/01/11 12:58:21;;;;;;;31.15;28.90;;;13.00;99.90;;;;;;4999758;28;20029;-87
2024/01/11 13:00:49;;;;;;;30.23;28.25;;;13.10;99.90;;;;;;4961001;28;20030;-86
2024/01/11 13:03:15;;;;;;;31.50;29.20;;;13.10;99.90;;;;;;4961041;28;20113;-86
2024/01/11 13:05:41;;;;;;;31.60;29.17;;;13.00;99.90;;;;;;4961953;28;20030;-86
2024/01/11 13:08:09;;;;;;;30.83;28.65;;;12.80;99.90;;;;;;4975086;28;20026;-84
2024/01/11 13:10:36;;;;;;;30.27;28.13;;;12.70;99.90;;;;;;4977008;28;20083;-84
2024/01/11 13:13:03;;;;;;;30.42;28.33;;;12.60;99.90;;;;;;4976289;28;20399;-85
2024/01/11 13:15:36;;;;;;;30.45;28.40;;;12.60;99.90;;;;;;4980220;28;20026;-88
2024/01/11 13:18:05;;;;;;;30.38;28.27;;;12.60;99.90;;;;;;4966205;28;20026;-86
2024/01/11 13:20:31;;;;;;;29.85;27.88;;;12.70;99.90;;;;;;4975487;28;20032;-88
2024/01/11 13:23:21;;;;;;;30.48;28.45;;;12.70;99.90;;;;;;4980361;28;20030;-87
2024/01/11 13:25:51;;;;;;;30.60;28.42;;;12.60;99.90;;;;;;4978350;28;20065;-91
2024/01/11 13:28:21;;;;;;;30.77;28.45;;;12.70;99.90;;;;;;4992058;28;20044;-87
2024/01/11 13:30:50;;;;;;;31.23;28.92;;;12.60;99.90;;;;;;4986114;28;20053;-90
2024/01/11 13:33:22;;;;;;;30.83;28.67;;;12.40;99.90;;;;;;4986551;28;20029;-88
2024/01/11 13:35:52;;;;;;;30.50;28.38;;;12.50;99.90;;;;;;4985345;28;20034;-91
2024/01/11 13:38:24;;;;;;;31.45;29.17;;;12.50;99.90;;;;;;4984621;28;20026;-90
2024/01/11 13:40:51;;;;;;;30.42;28.35;;;12.40;99.90;;;;;;4985129;28;20087;-90
2024/01/11 13:43:17;;;;;;;30.67;28.58;;;12.30;99.90;;;;;;4985587;28;20030;-91
2024/01/11 13:45:46;;;;;;;30.77;28.75;;;12.20;99.90;;;;;;4987894;28;20502;-90
2024/01/11 13:48:13;;;;;;;29.70;27.70;;;12.20;99.90;;;;;;4991669;28;20029;-89
2024/01/11 13:50:42;;;;;;;30.58;28.48;;;12.20;99.90;;;;;;4985640;28;20033;-92
2024/01/11 13:53:11;;;;;;;30.85;28.58;;;12.10;99.90;;;;;;4985677;28;20061;-90
2024/01/11 13:55:38;;;;;;;30.58;28.30;;;12.10;99.90;;;;;;4981235;28;20050;-91
2024/01/11 13:58:04;;;;;;;28.92;26.83;;;12.00;99.90;;;;;;4972355;28;20117;-89
2024/01/11 14:00:31;;;;;;;30.17;27.67;;;12.10;99.90;;;;;;4982024;28;20026;-90
2024/01/11 14:02:58;;;;;;;29.92;27.63;;;12.10;99.90;;;;;;4983214;28;20023;-90
2024/01/11 14:05:25;;;;;;;29.23;27.23;;;12.10;99.90;;;;;;4985459;28;20025;-86
2024/01/11 14:07:57;;;;;;;28.80;26.73;;;12.10;99.90;;;;;;4986066;28;20093;-89
2024/01/11 14:10:24;;;;;;;28.17;26.00;;;12.00;99.90;;;;;;4986114;28;20478;-87
2024/01/11 14:12:51;;;;;;;28.60;26.42;;;12.00;99.90;;;;;;4990176;28;20105;-88
2024/01/11 14:15:18;;;;;;;28.02;26.02;;;12.00;99.90;;;;;;5005155;28;20053;-87
2024/01/11 14:17:45;;;;;;;28.17;26.00;;;12.00;99.90;;;;;;4990246;28;20029;-86
2024/01/11 14:20:13;;;;;;;27.88;25.77;;;12.00;99.90;;;;;;4983882;28;20038;-86
2024/01/11 14:22:51;;;;;;;28.40;26.27;;;12.00;99.90;;;;;;4966830;28;20026;-87
2024/01/11 14:25:19;;;;;;;28.42;26.40;;;11.90;99.90;;;;;;4967528;28;20439;-87
2024/01/11 14:27:47;;;;;;;27.92;25.85;;;11.90;99.90;;;;;;4966784;28;20030;-86
2024/01/11 14:30:14;;;;;;;27.65;25.50;;;11.90;99.90;;;;;;4972673;28;20046;-85
2024/01/11 14:32:41;;;;;;;28.27;25.85;;;12.00;99.90;;;;;;4999689;28;20026;-84
2024/01/11 14:35:09;;;;;;;27.33;25.05;;;11.80;99.90;;;;;;5006726;28;20552;-87
2024/01/11 14:37:39;;;;;;;27.55;25.35;;;11.80;99.90;;;;;;5007550;28;20037;-85
2024/01/11 14:40:07;;;;;;;27.20;24.85;;;11.80;99.90;;;;;;5007895;28;20034;-85
2024/01/11 14:42:34;;;;;;;27.50;25.40;;;11.80;99.90;;;;;;4988923;28;20022;-86
2024/01/11 14:45:01;;;;;;;26.58;24.58;;;11.90;99.90;;;;;;4988315;28;20165;-86
2024/01/11 14:47:28;;;;;;;27.13;24.65;;;11.80;99.90;;;;;;4987123;28;20032;-86
2024/01/11 14:49:55;;;;;;;26.30;24.20;;;11.70;99.90;;;;;;4987088;28;20097;-86
2024/01/11 14:52:22;;;;;;;26.85;24.65;;;11.60;99.90;;;;;;4984589;28;20030;-87
2024/01/11 14:54:50;;;;;;;26.50;24.10;;;11.50;99.90;;;;;;4990304;28;20038;-85
2024/01/11 14:57:17;;;;;;;25.88;23.88;;;11.60;99.90;;;;;;4977714;28;20026;-85
2024/01/11 14:59:47;;;;;;;26.23;23.92;;;11.60;99.90;;;;;;4986426;28;20030;-85
2024/01/11 15:02:13;;;;;;;26.08;23.52;;;11.50;99.90;;;;;;4977696;28;20033;-87
2024/01/11 15:04:39;;;;;;;26.10;23.90;;;11.50;99.90;;;;;;4993263;28;20039;-88
2024/01/11 15:07:06;;;;;;;26.42;23.92;;;11.40;99.90;;;;;;4980074;28;20050;-87
2024/01/11 15:09:37;;;;;;;25.67;23.17;;;11.40;99.90;;;;;;4984928;28;20036;-88
2024/01/11 15:12:05;;;;;;;25.08;23.08;;;11.30;99.90;;;;;;4986190;28;20030;-89
2024/01/11 15:14:32;;;;;;;24.95;22.85;;;11.30;99.90;;;;;;4982667;28;20030;-88
2024/01/11 15:16:59;;;;;;;25.02;22.75;;;11.30;99.90;;;;;;4983232;28;20026;-88
2024/01/11 15:19:25;;;;;;;25.73;23.42;;;11.20;99.90;;;;;;4980869;28;20037;-88
2024/01/11 15:21:52;;;;;;;24.25;22.35;;;11.20;99.90;;;;;;4979534;28;20032;-87
2024/01/11 15:24:19;;;;;;;24.88;22.50;;;11.20;99.90;;;;;;4980869;28;20023;-86
2024/01/11 15:26:47;;;;;;;23.17;21.38;;;11.20;99.90;;;;;;4962337;28;20380;-85
2024/01/11 15:29:15;;;;;;;23.65;21.70;;;11.20;99.90;;;;;;4978905;28;20047;-86
2024/01/11 15:31:44;;;;;;;22.60;20.58;;;11.20;99.90;;;;;;4983270;28;20549;-87
2024/01/11 15:34:11;;;;;;;22.90;20.80;;;11.10;99.90;;;;;;4982612;28;20050;-87
2024/01/11 15:36:39;;;;;;;23.00;20.90;;;11.10;99.90;;;;;;4982362;28;20438;-87
2024/01/11 15:39:08;;;;;;;22.25;20.35;;;11.10;99.90;;;;;;4998652;28;20030;-87
2024/01/11 15:41:34;;;;;;;22.92;20.73;;;11.00;99.90;;;;;;4982288;28;20018;-88
2024/01/11 15:44:00;;;;;;;23.38;21.27;;;11.00;99.90;;;;;;4982356;28;20044;-87
2024/01/11 15:46:26;;;;;;;24.13;22.02;;;10.90;99.90;;;;;;4981994;28;20030;-87
2024/01/11 15:48:53;;;;;;;23.60;21.38;;;10.90;99.90;;;;;;4981862;28;20030;-87
2024/01/11 15:51:19;;;;;;;23.95;21.65;;;10.90;99.90;;;;;;4981768;28;20550;-87
2024/01/11 15:53:46;;;;;;;23.77;21.38;;;10.90;99.90;;;;;;4982032;28;20110;-86
2024/01/11 15:56:13;;;;;;;25.83;22.42;;;10.80;99.90;;;;;;4981831;28;20022;-86
2024/01/11 15:58:40;;;;;;;22.77;20.73;;;10.80;99.90;;;;;;4998005;28;20117;-89
2024/01/11 16:01:09;;;;;;;23.50;21.38;;;10.80;99.90;;;;;;4981897;28;20022;-86
2024/01/11 16:03:36;;;;;;;23.60;21.60;;;10.80;99.90;;;;;;4981373;28;20168;-88
2024/01/11 16:06:03;;;;;;;23.40;21.38;;;10.70;99.90;;;;;;4981879;28;20056;-88
2024/01/11 16:08:29;;;;;;;24.75;22.40;;;10.80;99.90;;;;;;4983362;28;20030;-88
2024/01/11 16:10:55;;;;;;;24.95;22.48;;;10.80;99.90;;;;;;4981853;28;20426;-88
2024/01/11 16:13:22;;;;;;;23.45;21.48;;;10.80;99.90;;;;;;4981309;28;20111;-87
2024/01/11 16:15:48;;;;;;;26.25;23.80;;;10.70;99.90;;;;;;4981398;28;20049;-87
2024/01/11 16:18:17;;;;;;;25.85;23.13;;;10.70;99.90;;;;;;4982170;28;20030;-90
2024/01/11 16:20:43;;;;;;;26.40;23.75;;;10.70;99.90;;;;;;4978873;28;20022;-88
2024/01/11 16:23:09;;;;;;;26.13;23.52;;;10.70;99.90;;;;;;4962218;28;20081;-89
2024/01/11 16:25:39;;;;;;;25.70;23.33;;;10.70;99.90;;;;;;4961996;28;20117;-88
2024/01/11 16:28:05;;;;;;;25.25;22.63;;;10.70;99.90;;;;;;4962112;28;20058;-87
2024/01/11 16:30:32;;;;;;;24.52;22.13;;;10.70;99.90;;;;;;4948493;28;20513;-87
2024/01/11 16:32:59;;;;;;;25.27;22.90;;;10.60;99.90;;;;;;4974426;28;20030;-88
2024/01/11 16:35:26;;;;;;;25.05;22.02;;;10.60;99.90;;;;;;4977728;28;20034;-88
2024/01/11 16:37:52;;;;;;;25.65;23.15;;;10.60;99.90;;;;;;4962173;28;20022;-87
2024/01/11 16:40:18;;;;;;;25.42;22.83;;;10.50;99.90;;;;;;4961798;28;20032;-88
2024/01/11 16:42:45;;;;;;;24.45;22.10;;;10.50;99.90;;;;;;4961852;28;20027;-88
2024/01/11 16:45:11;;;;;;;26.65;21.75;;;10.40;99.90;;;;;;4961813;28;20023;-89
2024/01/11 16:47:38;;;;;;;25.23;22.55;;;10.50;99.90;;;;;;4962003;28;20022;-88
2024/01/11 16:50:06;;;;;;;25.02;21.77;;;10.40;99.90;;;;;;4961823;28;20599;-89
2024/01/11 16:52:33;;;;;;;28.35;22.65;;;10.40;99.90;;;;;;4961629;28;20038;-89
2024/01/11 16:54:59;;;;;;;22.10;19.75;;;10.30;99.90;;;;;;4961900;28;20125;-87
2024/01/11 16:57:26;;;;;;;29.40;20.27;;;10.30;99.90;;;;;;4961540;28;20157;-88
2024/01/11 16:59:53;;;;;;;22.05;19.60;;;10.20;99.90;;;;;;4961279;28;20033;-88
2024/01/11 17:02:23;;;;;;;25.52;19.92;;;10.20;99.90;;;;;;4964943;28;20030;-87
2024/01/11 17:04:50;;;;;;;23.13;19.40;;;10.20;99.90;;;;;;4967819;28;20168;-88
2024/01/11 17:07:16;;;;;;;22.48;20.08;;;10.20;99.90;;;;;;4968048;28;20038;-87
2024/01/11 17:09:42;;;;;;;22.35;18.40;;;10.20;99.90;;;;;;4967955;28;20038;-87
2024/01/11 17:12:09;;;;;;;21.40;18.50;;;10.20;99.90;;;;;;4968128;28;20030;-88
2024/01/11 17:14:35;;;;;;;29.92;21.00;;;10.20;99.90;;;;;;4968346;28;20427;-87
2024/01/11 17:17:03;;;;;;;22.30;20.00;;;10.20;99.90;;;;;;4967876;28;20022;-88
2024/01/11 17:19:29;;;;;;;47.60;26.23;;;10.20;99.90;;;;;;4967922;28;20058;-87
2024/01/11 17:21:56;;;;;;;30.70;22.02;;;10.10;99.90;;;;;;4967760;28;20435;-87
2024/01/11 17:24:22;;;;;;;24.33;18.95;;;10.20;99.90;;;;;;4968328;28;20030;-87
2024/01/11 17:26:48;;;;;;;32.80;21.00;;;10.20;99.90;;;;;;4967969;28;20093;-87
2024/01/11 17:29:15;;;;;;;26.33;19.63;;;10.20;99.90;;;;;;4972025;28;20033;-87
2024/01/11 17:31:44;;;;;;;26.15;21.20;;;10.10;99.90;;;;;;4987883;28;20129;-86
2024/01/11 17:34:10;;;;;;;26.65;19.58;;;10.20;99.90;;;;;;4987469;28;20129;-87
2024/01/11 17:36:37;;;;;;;23.17;20.23;;;10.20;99.90;;;;;;4987132;28;20025;-86
2024/01/11 17:39:03;;;;;;;20.92;18.58;;;10.20;99.90;;;;;;4986928;28;20072;-87
2024/01/11 17:41:30;;;;;;;19.70;17.70;;;10.20;99.90;;;;;;4986735;28;20052;-88
2024/01/11 17:43:56;;;;;;;21.48;19.27;;;10.40;99.90;;;;;;4986613;28;20495;-86
2024/01/11 17:46:27;;;;;;;22.23;19.52;;;10.40;99.90;;;;;;4986487;28;20025;-84
2024/01/11 17:48:54;;;;;;;22.90;20.25;;;10.30;99.90;;;;;;4986447;28;20093;-84
2024/01/11 17:51:20;;;;;;;22.52;19.75;;;10.30;99.90;;;;;;5003234;28;20144;-86
2024/01/11 17:53:51;;;;;;;23.20;20.00;;;10.20;99.90;;;;;;4986457;28;20033;-86
2024/01/11 17:56:21;;;;;;;24.05;20.58;;;10.20;99.90;;;;;;4985883;28;20040;-86
2024/01/11 17:58:47;;;;;;;22.27;19.90;;;10.20;99.90;;;;;;4986640;28;20029;-86
2024/01/11 18:01:25;;;;;;;22.80;19.10;;;10.10;99.90;;;;;;4986580;28;20026;-86
2024/01/11 18:03:52;;;;;;;21.25;19.00;;;10.20;99.90;;;;;;5003035;28;20034;-86
2024/01/11 18:06:18;;;;;;;21.30;19.08;;;10.20;99.90;;;;;;4986812;28;20025;-86
2024/01/11 18:08:45;;;;;;;23.48;20.90;;;10.20;99.90;;;;;;5003659;28;20541;-86
2024/01/11 18:11:14;;;;;;;27.20;21.67;;;10.20;99.90;;;;;;4987611;28;20030;-90
2024/01/11 18:13:41;;;;;;;21.65;19.55;;;10.20;99.90;;;;;;4985121;28;20041;-87
2024/01/11 18:16:07;;;;;;;28.27;20.45;;;10.20;99.90;;;;;;4984149;28;20080;-87
2024/01/11 18:18:35;;;;;;;23.33;20.30;;;10.20;99.90;;;;;;4983264;28;20026;-86
2024/01/11 18:21:01;;;;;;;23.45;20.80;;;10.20;99.90;;;;;;4983207;28;20079;-85
2024/01/11 18:23:28;;;;;;;24.20;21.63;;;10.20;99.90;;;;;;4983108;28;20037;-87
2024/01/11 18:25:55;;;;;;;24.90;22.27;;;10.20;99.90;;;;;;4982986;28;20108;-86
2024/01/11 18:28:21;;;;;;;26.20;22.98;;;10.20;99.90;;;;;;4983072;28;20116;-86
2024/01/11 18:30:48;;;;;;;28.98;24.00;;;10.20;99.90;;;;;;4979378;28;20145;-86
2024/01/11 18:33:14;;;;;;;27.15;22.25;;;10.20;99.90;;;;;;4979988;28;20507;-85
2024/01/11 18:35:43;;;;;;;26.77;22.73;;;10.20;99.90;;;;;;4994779;28;20026;-85
2024/01/11 18:38:17;;;;;;;24.85;22.35;;;10.20;99.90;;;;;;4978621;28;20057;-84
2024/01/11 18:40:48;;;;;;;24.45;21.95;;;10.20;99.90;;;;;;4978811;28;20441;-83
2024/01/11 18:43:25;;;;;;;25.97;23.47;;;10.20;99.90;;;;;;4987174;28;20053;-84
2024/01/11 18:46:00;;;;;;;25.60;22.85;;;10.20;99.90;;;;;;4998635;28;20120;-85
2024/01/11 18:48:37;;;;;;;27.38;23.90;;;10.20;99.90;;;;;;4982407;28;20038;-85
2024/01/11 18:51:14;;;;;;;27.13;24.35;;;10.20;99.90;;;;;;4998188;28;20541;-84
2024/01/11 18:53:54;;;;;;;25.10;22.60;;;10.20;99.90;;;;;;4981957;28;20092;-85
2024/01/11 18:56:36;;;;;;;26.65;23.98;;;10.20;99.90;;;;;;4964648;28;20038;-85
2024/01/11 18:59:19;;;;;;;25.48;22.98;;;10.20;99.90;;;;;;4980131;28;20538;-84
2024/01/11 19:01:59;;;;;;;25.67;23.08;;;10.10;99.90;;;;;;4979741;28;20032;-85
2024/01/11 19:04:37;;;;;;;26.15;23.65;;;10.20;99.90;;;;;;4979900;28;20049;-86
2024/01/11 19:07:08;;;;;;;27.85;24.83;;;10.20;99.90;;;;;;4964829;28;20030;-87
2024/01/11 19:09:46;;;;;;;26.45;23.80;;;10.20;99.90;;;;;;4978873;28;20054;-86
2024/01/11 19:12:16;;;;;;;26.25;23.55;;;10.20;99.90;;;;;;4979004;28;20105;-85
2024/01/11 19:14:52;;;;;;;27.40;24.52;;;10.20;99.90;;;;;;4962645;28;20130;-87
2024/01/11 19:17:36;;;;;;;26.42;23.60;;;10.30;99.90;;;;;;4979065;28;20046;-86
2024/01/11 19:20:09;;;;;;;27.08;24.17;;;10.20;99.90;;;;;;4978695;28;20034;-88
2024/01/11 19:22:36;;;;;;;26.45;23.83;;;10.20;99.90;;;;;;4997790;28;20045;-86
2024/01/11 19:25:04;;;;;;;26.60;23.80;;;10.20;99.90;;;;;;4981857;28;20040;-88
2024/01/11 19:27:31;;;;;;;26.55;23.92;;;10.20;99.90;;;;;;4983102;28;20438;-89
2024/01/11 19:29:57;;;;;;;27.70;24.90;;;10.20;99.90;;;;;;4983105;28;20046;-86
2024/01/11 19:32:27;;;;;;;29.80;25.92;;;10.10;99.90;;;;;;4982653;28;20026;-87
2024/01/11 19:34:53;;;;;;;33.75;27.63;;;10.20;99.90;;;;;;4982628;28;20042;-89
2024/01/11 19:37:20;;;;;;;28.17;25.17;;;10.20;99.90;;;;;;4983514;28;20071;-88
2024/01/11 19:39:49;;;;;;;28.60;25.63;;;10.20;99.90;;;;;;4981324;28;20037;-89
2024/01/11 19:42:16;;;;;;;31.20;26.67;;;10.10;99.90;;;;;;4973316;28;20034;-89
2024/01/11 19:44:43;;;;;;;28.55;25.50;;;10.20;99.90;;;;;;4979280;28;20061;-89
2024/01/11 19:47:09;;;;;;;29.33;26.33;;;10.10;99.90;;;;;;4979221;28;20037;-88
2024/01/11 19:49:36;;;;;;;32.65;27.38;;;10.10;99.90;;;;;;4964346;28;20018;-88
2024/01/11 19:52:03;;;;;;;30.27;27.15;;;10.10;99.90;;;;;;4989881;28;20033;-89
2024/01/11 19:54:30;;;;;;;32.30;27.02;;;10.10;99.90;;;;;;4983394;28;20422;-88
2024/01/11 19:56:57;;;;;;;33.95;28.05;;;10.10;99.90;;;;;;4982284;28;20060;-88
2024/01/11 19:59:24;;;;;;;29.45;26.50;;;10.10;99.90;;;;;;4982861;28;20026;-87
2024/01/11 20:01:50;;;;;;;29.52;26.40;;;10.10;99.90;;;;;;4979277;28;20061;-86